createdAt,value
2023-06-20T00:00:14.660Z,79.43
2023-06-20T00:03:18.023Z,79.12
2023-06-20T00:06:23.518Z,79.46
2023-06-20T00:09:26.399Z,79.83
2023-06-20T00:12:29.185Z,79.84
2023-06-20T00:15:32.428Z,79.73
2023-06-20T00:18:35.212Z,79.20
2023-06-20T00:21:41.168Z,78.51
2023-06-20T00:24:44.003Z,77.81
2023-06-20T00:27:46.920Z,77.00
2023-06-20T00:30:51.004Z,76.26
2023-06-20T00:33:53.869Z,74.16
2023-06-20T00:36:58.749Z,73.25
2023-06-20T00:40:01.746Z,72.05
2023-06-20T00:43:05.188Z,69.65
2023-06-20T00:46:08.025Z,68.10
2023-06-20T00:49:12.529Z,71.88
2023-06-20T00:52:18.637Z,75.52
2023-06-20T00:55:21.505Z,78.43
2023-06-20T00:58:24.207Z,78.54
2023-06-20T01:01:32.884Z,81.13
2023-06-20T01:04:35.877Z,81.86
2023-06-20T01:07:47.083Z,82.27
2023-06-20T01:11:04.264Z,83.32
2023-06-20T01:14:14.090Z,84.67
2023-06-20T01:17:22.380Z,85.06
2023-06-20T01:20:29.977Z,85.31
2023-06-20T01:23:36.841Z,85.14
2023-06-20T01:26:47.855Z,84.86
2023-06-20T01:29:59.622Z,84.30
2023-06-20T01:33:05.199Z,85.03
2023-06-20T01:36:10.647Z,85.31
2023-06-20T01:39:19.074Z,86.20
2023-06-20T01:42:25.821Z,85.45
2023-06-20T01:45:30.615Z,85.29
2023-06-20T01:48:35.914Z,84.76
2023-06-20T01:51:38.986Z,85.61
2023-06-20T01:54:47.675Z,85.94
2023-06-20T01:57:54.426Z,86.56
2023-06-20T02:00:59.928Z,87.40
2023-06-20T02:04:04.437Z,86.44
2023-06-20T02:07:09.451Z,85.52
2023-06-20T02:10:15.935Z,85.30
2023-06-20T02:13:20.098Z,84.81
2023-06-20T02:16:24.349Z,84.65
2023-06-20T02:19:27.200Z,84.51
2023-06-20T02:22:30.960Z,85.39
2023-06-20T02:25:37.037Z,83.93
2023-06-20T02:28:43.392Z,82.75
2023-06-20T02:31:49.995Z,81.38
2023-06-20T02:34:55.292Z,80.47
2023-06-20T02:38:01.154Z,81.87
2023-06-20T02:41:05.658Z,84.12
2023-06-20T02:44:08.479Z,84.01
2023-06-20T02:47:22.875Z,85.07
2023-06-20T02:50:30.979Z,85.03
2023-06-20T02:53:43.975Z,84.60
2023-06-20T02:56:54.383Z,84.95
2023-06-20T03:00:06.125Z,85.89
2023-06-20T03:03:12.102Z,85.75
2023-06-20T03:06:18.039Z,85.98
2023-06-20T03:09:22.988Z,86.10
2023-06-20T03:12:27.110Z,86.71
2023-06-20T03:15:29.828Z,86.06
2023-06-20T03:18:32.559Z,85.90
2023-06-20T03:21:35.286Z,86.22
2023-06-20T03:24:38.078Z,86.08
2023-06-20T03:27:42.239Z,86.72
2023-06-20T03:30:45.174Z,86.89
2023-06-20T03:33:47.897Z,87.46
2023-06-20T03:36:50.639Z,87.45
2023-06-20T03:39:53.365Z,87.53
2023-06-20T03:42:57.782Z,87.86
2023-06-20T03:46:00.753Z,88.56
2023-06-20T03:49:03.598Z,88.77
2023-06-20T03:52:07.515Z,89.04
2023-06-20T03:55:10.815Z,89.26
2023-06-20T03:58:14.930Z,89.44
2023-06-20T04:01:17.754Z,89.69
2023-06-20T04:04:20.694Z,89.31
2023-06-20T04:07:23.652Z,89.17
2023-06-20T04:10:26.464Z,89.45
2023-06-20T04:13:30.632Z,90.20
2023-06-20T04:16:33.393Z,90.44
2023-06-20T04:19:36.057Z,90.94
2023-06-20T04:22:41.975Z,91.07
2023-06-20T04:25:44.734Z,91.69
2023-06-20T04:28:48.814Z,91.94
2023-06-20T04:31:53.544Z,91.66
2023-06-20T04:34:56.333Z,92.03
2023-06-20T04:38:02.703Z,91.74
2023-06-20T04:41:05.472Z,90.27
2023-06-20T04:44:09.881Z,89.21
2023-06-20T04:47:14.135Z,89.28
2023-06-20T04:50:17.125Z,89.39
2023-06-20T04:53:21.001Z,89.65
2023-06-20T04:56:23.897Z,90.02
2023-06-20T04:59:28.074Z,90.63
2023-06-20T05:02:31.033Z,90.71
2023-06-20T05:05:34.041Z,91.13
2023-06-20T05:08:37.117Z,91.12
2023-06-20T05:11:40.037Z,88.97
2023-06-20T05:14:44.713Z,86.38
2023-06-20T05:17:47.459Z,84.54
2023-06-20T05:20:51.696Z,81.54
2023-06-20T05:23:54.572Z,81.32
2023-06-20T05:26:57.375Z,80.35
2023-06-20T05:30:01.617Z,78.85
2023-06-20T05:33:04.392Z,79.19
2023-06-20T05:36:07.472Z,80.00
2023-06-20T05:39:10.656Z,79.47
2023-06-20T05:42:13.866Z,78.92
2023-06-20T05:45:18.269Z,79.43
2023-06-20T05:48:25.188Z,78.99
2023-06-20T05:51:29.165Z,78.40
2023-06-20T05:54:32.952Z,79.24
2023-06-20T05:57:38.486Z,78.47
2023-06-20T06:00:43.940Z,79.07
2023-06-20T06:03:49.413Z,78.96
2023-06-20T06:06:52.414Z,78.49
2023-06-20T06:09:55.267Z,76.58
2023-06-20T06:12:58.180Z,76.23
2023-06-20T06:16:02.370Z,75.77
2023-06-20T06:19:05.384Z,74.68
2023-06-20T06:22:08.323Z,74.72
2023-06-20T06:25:11.464Z,74.81
2023-06-20T06:28:14.496Z,73.99
2023-06-20T06:31:25.575Z,75.09
2023-06-20T06:34:28.700Z,75.50
2023-06-20T06:37:31.834Z,75.16
2023-06-20T06:40:34.853Z,72.10
2023-06-20T06:43:37.691Z,71.04
2023-06-20T06:46:42.139Z,70.96
2023-06-20T06:49:45.002Z,71.75
2023-06-20T06:52:47.995Z,69.87
2023-06-20T06:55:50.892Z,69.96
2023-06-20T06:58:57.619Z,69.49
2023-06-20T07:02:01.874Z,66.89
2023-06-20T07:05:05.942Z,66.71
2023-06-20T07:08:08.911Z,67.35
2023-06-20T07:11:11.817Z,66.84
2023-06-20T07:14:14.744Z,64.83
2023-06-20T07:17:19.079Z,61.86
2023-06-20T07:20:21.996Z,62.88
2023-06-20T07:23:25.070Z,62.09
2023-06-20T07:26:27.812Z,62.58
2023-06-20T07:29:30.643Z,60.80
2023-06-20T07:32:35.085Z,61.83
2023-06-20T07:35:37.999Z,61.65
2023-06-20T07:38:40.720Z,61.22
2023-06-20T07:41:43.401Z,58.51
2023-06-20T07:44:46.048Z,58.80
2023-06-20T07:47:50.248Z,58.74
2023-06-20T07:50:53.003Z,59.59
2023-06-20T07:53:55.812Z,58.17
2023-06-20T07:56:58.570Z,57.24
2023-06-20T08:00:01.740Z,59.11
2023-06-20T08:03:06.024Z,56.88
2023-06-20T08:06:08.862Z,57.82
2023-06-20T08:09:11.821Z,58.06
2023-06-20T08:12:14.630Z,58.31
2023-06-20T08:15:17.433Z,56.26
2023-06-20T08:18:21.647Z,56.28
2023-06-20T08:21:24.359Z,55.93
2023-06-20T08:24:27.094Z,56.60
2023-06-20T08:27:29.860Z,56.60
2023-06-20T08:30:32.837Z,56.59
2023-06-20T08:33:37.011Z,56.90
2023-06-20T08:36:40.250Z,55.80
2023-06-20T08:39:43.335Z,56.66
2023-06-20T08:42:46.100Z,54.48
2023-06-20T08:50:08.358Z,51.30
2023-06-20T08:53:11.560Z,51.52
2023-06-20T08:56:15.054Z,52.04
2023-06-20T08:59:22.090Z,52.37
2023-06-20T09:02:24.945Z,51.67
2023-06-20T09:05:32.917Z,50.01
2023-06-20T09:08:37.686Z,50.15
2023-06-20T09:11:40.469Z,49.48
2023-06-20T09:14:43.343Z,48.25
2023-06-20T09:17:46.618Z,48.34
2023-06-20T09:20:50.773Z,47.13
2023-06-20T09:24:03.486Z,46.97
2023-06-20T09:27:06.602Z,46.04
2023-06-20T09:30:10.306Z,45.72
2023-06-20T09:33:15.568Z,45.02
2023-06-20T09:36:19.921Z,45.03
2023-06-20T09:39:22.686Z,44.19
2023-06-20T09:42:25.528Z,44.19
2023-06-20T09:45:28.422Z,44.83
2023-06-20T09:48:33.988Z,44.27
2023-06-20T09:51:44.606Z,42.70
2023-06-20T09:54:57.026Z,43.91
2023-06-20T09:58:01.984Z,43.10
2023-06-20T10:01:06.224Z,41.48
2023-06-20T10:04:09.752Z,42.41
2023-06-20T10:07:15.948Z,44.26
2023-06-20T10:10:19.878Z,43.04
2023-06-20T10:13:23.132Z,40.40
2023-06-20T10:16:30.217Z,39.89
2023-06-20T10:19:48.902Z,40.60
2023-06-20T10:22:53.317Z,39.89
2023-06-20T10:25:59.254Z,38.61
2023-06-20T10:29:04.175Z,38.00
2023-06-20T10:32:08.535Z,38.16
2023-06-20T10:35:16.935Z,38.43
2023-06-20T10:38:21.127Z,36.64
2023-06-20T10:41:25.475Z,34.75
2023-06-20T10:44:30.356Z,34.52
2023-06-20T10:47:34.670Z,35.47
2023-06-20T10:50:40.265Z,34.51
2023-06-20T10:53:44.623Z,35.38
2023-06-20T10:56:48.091Z,36.71
2023-06-20T10:59:52.025Z,36.49
2023-06-20T11:02:56.391Z,36.04
2023-06-20T11:05:59.348Z,36.09
2023-06-20T11:09:04.158Z,36.62
2023-06-20T11:12:08.780Z,35.35
2023-06-20T11:15:22.868Z,35.09
2023-06-20T11:18:25.639Z,34.72
2023-06-20T11:21:29.493Z,35.87
2023-06-20T11:24:36.637Z,34.59
2023-06-20T11:27:39.953Z,34.33
2023-06-20T11:30:44.809Z,33.62
2023-06-20T11:36:51.939Z,33.55
2023-06-20T11:39:56.448Z,34.34
2023-06-20T11:42:59.844Z,33.44
2023-06-20T11:46:03.305Z,34.44
2023-06-20T11:49:06.210Z,33.35
2023-06-20T11:52:10.190Z,33.55
2023-06-20T11:55:14.365Z,34.54
2023-06-20T11:58:17.650Z,34.69
2023-06-20T12:01:25.061Z,33.76
2023-06-20T12:04:27.993Z,34.36
2023-06-20T12:07:30.761Z,33.92
2023-06-20T12:10:35.555Z,33.94
2023-06-20T12:13:45.967Z,35.46
2023-06-20T12:16:49.546Z,34.18
2023-06-20T12:19:53.118Z,32.44
2023-06-20T12:22:55.908Z,33.19
2023-06-20T12:26:00.095Z,32.80
2023-06-20T12:29:02.957Z,33.50
2023-06-20T12:32:06.394Z,33.79
2023-06-20T12:35:10.406Z,33.91
2023-06-20T12:38:13.475Z,33.39
2023-06-20T12:41:18.714Z,33.38
2023-06-20T12:44:21.409Z,33.12
2023-06-20T12:47:24.224Z,32.93
2023-06-20T12:50:27.220Z,33.16
2023-06-20T12:53:30.140Z,33.29
2023-06-20T12:56:35.332Z,33.43
2023-06-20T12:59:38.042Z,32.59
2023-06-20T13:02:41.131Z,32.57
2023-06-20T13:05:44.183Z,33.46
2023-06-20T13:08:46.905Z,34.31
2023-06-20T13:11:51.153Z,34.95
2023-06-20T13:15:06.666Z,34.23
2023-06-20T13:18:13.442Z,32.46
2023-06-20T13:21:17.711Z,32.93
2023-06-20T13:24:20.646Z,32.88
2023-06-20T13:27:26.496Z,33.35
2023-06-20T13:30:29.621Z,32.82
2023-06-20T13:33:32.470Z,33.17
2023-06-20T13:36:35.280Z,34.15
2023-06-20T13:39:38.091Z,34.34
2023-06-20T13:42:45.412Z,33.10
2023-06-20T13:45:48.428Z,32.70
2023-06-20T13:48:52.498Z,33.02
2023-06-20T13:51:55.695Z,33.98
2023-06-20T13:54:58.409Z,34.06
2023-06-20T13:58:03.941Z,32.77
2023-06-20T14:01:07.302Z,34.48
2023-06-20T14:04:10.230Z,31.59
2023-06-20T14:07:13.405Z,31.15
2023-06-20T14:10:16.256Z,30.79
2023-06-20T14:13:20.650Z,31.32
2023-06-20T14:16:24.574Z,31.33
2023-06-20T14:19:27.895Z,31.43
2023-06-20T14:22:30.670Z,30.96
2023-06-20T14:25:33.540Z,30.59
2023-06-20T14:28:37.667Z,31.83
2023-06-20T14:31:40.402Z,31.43
2023-06-20T14:34:44.913Z,31.96
2023-06-20T14:37:47.664Z,29.37
2023-06-20T14:40:50.384Z,29.22
2023-06-20T14:43:54.687Z,29.84
2023-06-20T14:46:57.744Z,30.60
2023-06-20T14:50:00.527Z,30.79
2023-06-20T14:53:03.200Z,30.48
2023-06-20T14:56:06.083Z,30.90
2023-06-20T14:59:11.045Z,30.71
2023-06-20T15:02:13.792Z,30.03
2023-06-20T15:05:16.681Z,30.76
2023-06-20T15:08:19.393Z,30.80
2023-06-20T15:11:22.064Z,31.23
2023-06-20T15:14:26.408Z,30.24
2023-06-20T15:17:29.691Z,30.24
2023-06-20T15:20:32.749Z,30.82
2023-06-20T15:23:35.811Z,31.50
2023-06-20T15:26:38.672Z,30.92
2023-06-20T15:29:42.777Z,31.54
2023-06-20T15:32:46.049Z,30.20
2023-06-20T15:35:48.913Z,30.49
2023-06-20T15:38:51.680Z,29.67
2023-06-20T15:41:54.419Z,29.20
2023-06-20T15:44:59.507Z,28.41
2023-06-20T15:48:02.271Z,29.51
2023-06-20T15:51:05.075Z,29.57
2023-06-20T15:54:07.879Z,28.98
2023-06-20T15:57:11.289Z,29.03
2023-06-20T16:00:17.119Z,28.64
2023-06-20T16:03:20.042Z,28.71
2023-06-20T16:06:22.936Z,28.96
2023-06-20T16:09:25.805Z,28.84
2023-06-20T16:12:28.545Z,28.90
2023-06-20T16:15:32.685Z,29.51
2023-06-20T16:18:35.407Z,29.29
2023-06-20T16:21:38.101Z,28.87
2023-06-20T16:24:42.770Z,29.17
2023-06-20T16:27:45.671Z,29.68
2023-06-20T16:30:50.180Z,29.89
2023-06-20T16:33:53.028Z,29.93
2023-06-20T16:36:55.789Z,30.31
2023-06-20T16:39:58.927Z,30.84
2023-06-20T16:43:03.225Z,30.39
2023-06-20T16:46:09.887Z,30.31
2023-06-20T16:49:12.763Z,30.30
2023-06-20T16:52:15.580Z,30.15
2023-06-20T16:55:18.483Z,31.51
2023-06-20T16:58:21.541Z,32.74
2023-06-20T17:01:26.541Z,33.42
2023-06-20T17:04:29.385Z,33.58
2023-06-20T17:07:34.173Z,34.63
2023-06-20T17:10:37.043Z,35.85
2023-06-20T17:13:41.376Z,36.10
2023-06-20T17:16:45.600Z,36.30
2023-06-20T17:19:48.294Z,38.30
2023-06-20T17:22:51.170Z,37.36
2023-06-20T17:25:53.933Z,37.45
2023-06-20T17:28:57.272Z,38.52
2023-06-20T17:32:01.982Z,44.49
2023-06-20T17:35:05.066Z,55.55
2023-06-20T17:38:07.874Z,53.60
2023-06-20T17:41:10.745Z,63.40
2023-06-20T17:44:16.143Z,66.42
2023-06-20T17:47:20.286Z,68.45
2023-06-20T17:50:23.070Z,71.41
2023-06-20T17:53:25.810Z,72.79
2023-06-20T17:56:28.574Z,71.98
2023-06-20T17:59:31.289Z,75.42
2023-06-20T18:02:35.498Z,78.11
2023-06-20T18:05:38.269Z,80.47
2023-06-20T18:08:44.490Z,81.09
2023-06-20T18:11:51.597Z,80.72
2023-06-20T18:14:55.307Z,79.81
2023-06-20T18:17:59.494Z,80.37
2023-06-20T18:21:02.301Z,80.95
2023-06-20T18:24:05.285Z,81.36
2023-06-20T18:27:08.417Z,80.89
2023-06-20T18:30:11.765Z,82.02
2023-06-20T18:33:17.353Z,82.56
2023-06-20T18:36:20.136Z,84.39
2023-06-20T18:39:22.830Z,83.90
2023-06-20T18:42:25.689Z,83.58
2023-06-20T18:45:28.479Z,83.76
2023-06-20T18:48:33.026Z,84.59
2023-06-20T18:51:35.732Z,84.73
2023-06-20T18:54:38.856Z,85.33
2023-06-20T18:57:41.691Z,86.27
2023-06-20T19:00:44.658Z,86.83
2023-06-20T19:03:48.808Z,88.09
2023-06-20T19:06:53.178Z,88.89
2023-06-20T19:09:56.005Z,89.81
2023-06-20T19:12:59.004Z,90.40
2023-06-20T19:16:02.062Z,91.15
2023-06-20T19:19:06.437Z,92.23
2023-06-20T19:22:09.327Z,92.90
2023-06-20T19:25:12.131Z,93.88
2023-06-20T19:28:15.223Z,94.31
2023-06-20T19:31:18.190Z,94.35
2023-06-20T19:34:25.848Z,93.98
2023-06-20T19:37:28.684Z,93.68
2023-06-20T19:40:32.625Z,95.07
2023-06-20T19:43:35.785Z,95.20
2023-06-20T19:46:38.900Z,95.28
2023-06-20T19:49:43.261Z,94.81
2023-06-20T19:52:46.422Z,93.06
2023-06-20T19:55:49.864Z,89.17
2023-06-20T19:58:52.710Z,89.81
2023-06-20T20:01:55.708Z,91.44
2023-06-20T20:04:59.969Z,92.82
2023-06-20T20:08:02.853Z,92.83
2023-06-20T20:11:05.670Z,93.16
2023-06-20T20:14:08.693Z,93.27
2023-06-20T20:17:11.685Z,92.22
2023-06-20T20:20:16.226Z,84.40
2023-06-20T20:23:27.600Z,83.15
2023-06-20T20:26:37.159Z,73.43
2023-06-20T20:29:39.869Z,74.88
2023-06-20T20:32:46.876Z,76.56
2023-06-20T20:35:51.322Z,76.30
2023-06-20T20:38:54.055Z,75.90
2023-06-20T20:41:56.835Z,78.00
2023-06-20T20:44:59.607Z,78.09
2023-06-20T20:48:02.562Z,79.89
2023-06-20T20:51:06.784Z,82.69
2023-06-20T20:54:09.629Z,83.47
2023-06-20T20:57:12.553Z,84.12
2023-06-20T21:00:16.579Z,84.08
2023-06-20T21:03:19.612Z,84.11
2023-06-20T21:06:23.863Z,82.81
2023-06-20T21:09:26.565Z,83.45
2023-06-20T21:12:29.447Z,83.37
2023-06-20T21:15:32.409Z,83.53
2023-06-20T21:18:35.164Z,83.93
2023-06-20T21:21:39.544Z,84.32
2023-06-20T21:24:42.503Z,84.28
2023-06-20T21:27:45.301Z,83.36
2023-06-20T21:30:48.071Z,84.53
2023-06-20T21:33:51.050Z,84.91
2023-06-20T21:36:55.365Z,85.67
2023-06-20T21:39:58.682Z,86.81
2023-06-20T21:43:01.457Z,86.95
2023-06-20T21:46:04.718Z,86.84
2023-06-20T21:49:08.512Z,86.13
2023-06-20T21:52:12.596Z,86.20
2023-06-20T21:55:15.769Z,86.40
2023-06-20T21:58:18.807Z,85.95
2023-06-20T22:01:21.501Z,86.25
2023-06-20T22:04:24.261Z,86.89
2023-06-20T22:07:28.360Z,86.26
2023-06-20T22:10:31.288Z,86.13
2023-06-20T22:13:34.222Z,86.19
2023-06-20T22:16:37.199Z,86.00
2023-06-20T22:19:39.910Z,86.92
2023-06-20T22:22:44.149Z,86.98
2023-06-20T22:25:46.867Z,87.51
2023-06-20T22:28:49.688Z,88.13
2023-06-20T22:31:52.437Z,88.32
2023-06-20T22:34:55.363Z,87.97
2023-06-20T22:37:59.650Z,88.11
2023-06-20T22:41:02.441Z,88.78
2023-06-20T22:44:05.550Z,88.51
2023-06-20T22:47:08.697Z,88.98
2023-06-20T22:50:11.971Z,89.24
2023-06-20T22:53:16.698Z,88.98
2023-06-20T22:56:19.517Z,89.06
2023-06-20T22:59:22.531Z,88.86
2023-06-20T23:02:25.961Z,88.45
2023-06-20T23:05:28.880Z,88.62
2023-06-20T23:08:33.090Z,89.09
2023-06-20T23:11:36.524Z,89.01
2023-06-20T23:14:39.473Z,88.66
2023-06-20T23:17:42.239Z,88.80
2023-06-20T23:20:47.433Z,88.46
2023-06-20T23:23:52.139Z,88.80
2023-06-20T23:26:56.069Z,88.60
2023-06-20T23:30:01.419Z,88.10
2023-06-20T23:33:05.481Z,88.88
2023-06-20T23:36:09.823Z,88.28
2023-06-20T23:39:13.916Z,88.57
2023-06-20T23:42:16.731Z,88.71
2023-06-20T23:45:58.231Z,88.74
2023-06-20T23:49:37.438Z,89.27
2023-06-20T23:52:40.428Z,89.13
2023-06-20T23:55:44.563Z,89.34
2023-06-20T23:58:47.622Z,89.41
